HISTORICAL SENSOR DATA

Sensor Data Report

DB LIVE
CURRENT TIME--:--:--
DEVICE NETWORK Gateway Status
13 ESP · realtime ~1s · history 60s
Weather WS-MOD-01
ONLINE
Actuator ACT-MOD-01
OFFLINE
Mainboard L3 MB-L3-01
ONLINE
Mainboard L5 MB-L5-01
ONLINE
Remote AC AC-REMOTE-01
OFFLINE
PZEM L3-01 PWR-L3-01
OFFLINE
PZEM L3-02 PWR-L3-02
OFFLINE
PZEM L3-03 PWR-L3-03
OFFLINE
PZEM L3-04 PWR-L3-04
OFFLINE
PZEM L5-01 PWR-L5-01
ONLINE
PZEM L5-02 PWR-L5-02
OFFLINE
PZEM L5-03 PWR-L5-03
WARNING
PZEM L5-04 PWR-L5-04
OFFLINE
REPORT FILTER

Periode & Sensor

DATABASE HISTORY
RESET
QUICK RANGE Hari ini 7 hari 30 hari
PERIODE04 Aug 2026sampai 02 Sep 2026
TOTAL DATA40,278sensor readings
MINIMUM-0.50sesuai filter
AVERAGE56.78sesuai filter
MAXIMUM998.00sesuai filter
REPORT RESULT

Data Sensor

04/08/2026 — 02/09/2026 EXPORT CSV
NOTANGGALWAKTUDEVICECHANNELSENSORVALUEUNIT
11701 02/09/2026 14:54:49 MB-L5-01Mainboard Lantai 5 L5-ST-02 Surface Temperature 2 30.20 °C
11702 02/09/2026 14:54:49 MB-L5-01Mainboard Lantai 5 L5-LUX-02 Illuminance / LUX 2 216.50 lux
11703 02/09/2026 14:54:48 MB-L3-01Mainboard Lantai 3 L3-BGT-02 Black Globe Temperature 2 29.70 °C
11704 02/09/2026 14:54:48 MB-L3-01Mainboard Lantai 3 L3-RAD-01 Radiation 1 1.00 W/m²
11705 02/09/2026 14:54:48 MB-L3-01Mainboard Lantai 3 L3-SHT-03-RH SHT20 3 Humidity 49.00 %RH
11706 02/09/2026 14:54:48 MB-L3-01Mainboard Lantai 3 L3-ST-01 Surface Temperature 1 29.90 °C
11707 02/09/2026 14:54:48 MB-L3-01Mainboard Lantai 3 L3-AI-05 Analog Input 5 3.12 V
11708 02/09/2026 14:54:48 MB-L3-01Mainboard Lantai 3 L3-SHT-03-T SHT20 3 Temperature 31.90 °C
11709 02/09/2026 14:54:48 MB-L3-01Mainboard Lantai 3 L3-SHT-02-T SHT20 2 Temperature 32.10 °C
11710 02/09/2026 14:54:48 MB-L3-01Mainboard Lantai 3 L3-BGT-03 Black Globe Temperature 3 29.10 °C
11711 02/09/2026 14:54:48 MB-L3-01Mainboard Lantai 3 L3-ST-02 Surface Temperature 2 30.10 °C
11712 02/09/2026 14:54:48 MB-L3-01Mainboard Lantai 3 L3-AI-06 Analog Input 6 3.12 V
11713 02/09/2026 14:54:48 MB-L3-01Mainboard Lantai 3 L3-LUX-06 Illuminance / LUX 6 32.00 lux
11714 02/09/2026 14:54:48 MB-L3-01Mainboard Lantai 3 L3-AI-01 Analog Input 1 3.12 V
11715 02/09/2026 14:54:48 MB-L3-01Mainboard Lantai 3 L3-HFT-01 Heat Flow Temperature 1 29.60 °C
11716 02/09/2026 14:54:48 MB-L3-01Mainboard Lantai 3 L3-LUX-05 Illuminance / LUX 5 38.40 lux
11717 02/09/2026 14:54:48 MB-L3-01Mainboard Lantai 3 L3-AI-02 Analog Input 2 3.12 V
11718 02/09/2026 14:54:48 MB-L3-01Mainboard Lantai 3 L3-LUX-04 Illuminance / LUX 4 53.80 lux
11719 02/09/2026 14:54:48 MB-L3-01Mainboard Lantai 3 L3-HFT-02 Heat Flow Temperature 2 29.10 °C
11720 02/09/2026 14:54:48 MB-L3-01Mainboard Lantai 3 L3-SHT-01-T SHT20 1 Temperature 32.10 °C
11721 02/09/2026 14:54:48 MB-L3-01Mainboard Lantai 3 L3-LUX-02 Illuminance / LUX 2 42.00 lux
11722 02/09/2026 14:54:48 MB-L3-01Mainboard Lantai 3 L3-SHT-01-RH SHT20 1 Humidity 48.30 %RH
11723 02/09/2026 14:54:48 MB-L3-01Mainboard Lantai 3 L3-AI-03 Analog Input 3 3.12 V
11724 02/09/2026 14:54:48 MB-L3-01Mainboard Lantai 3 L3-SHT-02-RH SHT20 2 Humidity 48.30 %RH
11725 02/09/2026 14:54:48 MB-L3-01Mainboard Lantai 3 L3-BGT-01 Black Globe Temperature 1 29.60 °C
11726 02/09/2026 14:54:48 MB-L3-01Mainboard Lantai 3 L3-LUX-01 Illuminance / LUX 1 14.90 lux
11727 02/09/2026 14:54:48 MB-L3-01Mainboard Lantai 3 L3-RAD-02 Radiation 2 1.00 W/m²
11728 02/09/2026 14:54:48 MB-L3-01Mainboard Lantai 3 L3-LUX-03 Illuminance / LUX 3 117.40 lux
11729 02/09/2026 14:54:48 MB-L3-01Mainboard Lantai 3 L3-AI-04 Analog Input 4 3.12 V
11730 02/09/2026 14:54:47 MB-L5-01Mainboard Lantai 5 L5-AI-05 Analog Input 5 3.05 V
11731 02/09/2026 14:54:47 MB-L5-01Mainboard Lantai 5 L5-SHT-03-T SHT20 3 Temperature 32.20 °C
11732 02/09/2026 14:54:47 MB-L5-01Mainboard Lantai 5 L5-SHT-02-T SHT20 2 Temperature 32.10 °C
11733 02/09/2026 14:54:47 MB-L5-01Mainboard Lantai 5 L5-SHT-03-RH SHT20 3 Humidity 48.80 %RH
11734 02/09/2026 14:54:47 MB-L5-01Mainboard Lantai 5 L5-AI-04 Analog Input 4 3.05 V
11735 02/09/2026 14:54:47 MB-L5-01Mainboard Lantai 5 L5-RAD-01 Radiation 1 2.00 W/m²
11736 02/09/2026 14:54:47 MB-L5-01Mainboard Lantai 5 L5-AI-03 Analog Input 3 3.05 V
11737 02/09/2026 14:54:47 MB-L5-01Mainboard Lantai 5 L5-AI-02 Analog Input 2 3.05 V
11738 02/09/2026 14:54:47 MB-L5-01Mainboard Lantai 5 L5-AI-01 Analog Input 1 3.05 V
11739 02/09/2026 14:54:47 MB-L5-01Mainboard Lantai 5 L5-LUX-05 Illuminance / LUX 5 549.30 lux
11740 02/09/2026 14:54:47 MB-L5-01Mainboard Lantai 5 L5-BGT-03 Black Globe Temperature 3 29.60 °C
11741 02/09/2026 14:54:47 MB-L5-01Mainboard Lantai 5 L5-LUX-03 Illuminance / LUX 3 205.30 lux
11742 02/09/2026 14:54:47 MB-L5-01Mainboard Lantai 5 L5-BGT-02 Black Globe Temperature 2 29.60 °C
11743 02/09/2026 14:54:47 MB-L5-01Mainboard Lantai 5 L5-BGT-01 Black Globe Temperature 1 29.60 °C
11744 02/09/2026 14:54:47 MB-L5-01Mainboard Lantai 5 L5-HFT-02 Heat Flow Temperature 2 30.00 °C
11745 02/09/2026 14:54:47 MB-L5-01Mainboard Lantai 5 L5-HFT-01 Heat Flow Temperature 1 30.00 °C
11746 02/09/2026 14:54:47 MB-L5-01Mainboard Lantai 5 L5-LUX-01 Illuminance / LUX 1 259.00 lux
11747 02/09/2026 14:54:47 MB-L5-01Mainboard Lantai 5 L5-LUX-06 Illuminance / LUX 6 281.10 lux
11748 02/09/2026 14:54:47 MB-L5-01Mainboard Lantai 5 L5-ST-02 Surface Temperature 2 30.40 °C
11749 02/09/2026 14:54:47 MB-L5-01Mainboard Lantai 5 L5-LUX-02 Illuminance / LUX 2 240.30 lux
11750 02/09/2026 14:54:47 MB-L5-01Mainboard Lantai 5 L5-ST-01 Surface Temperature 1 30.00 °C
11751 02/09/2026 14:54:47 MB-L5-01Mainboard Lantai 5 L5-RAD-02 Radiation 2 2.00 W/m²
11752 02/09/2026 14:54:47 MB-L5-01Mainboard Lantai 5 L5-AI-06 Analog Input 6 3.05 V
11753 02/09/2026 14:54:47 MB-L5-01Mainboard Lantai 5 L5-SHT-02-RH SHT20 2 Humidity 48.20 %RH
11754 02/09/2026 14:54:47 MB-L5-01Mainboard Lantai 5 L5-LUX-04 Illuminance / LUX 4 296.60 lux
11755 02/09/2026 14:54:46 MB-L3-01Mainboard Lantai 3 L3-ST-02 Surface Temperature 2 30.00 °C
11756 02/09/2026 14:54:46 MB-L3-01Mainboard Lantai 3 L3-AI-06 Analog Input 6 3.12 V
11757 02/09/2026 14:54:46 MB-L3-01Mainboard Lantai 3 L3-LUX-06 Illuminance / LUX 6 36.50 lux
11758 02/09/2026 14:54:46 MB-L3-01Mainboard Lantai 3 L3-AI-01 Analog Input 1 3.12 V
11759 02/09/2026 14:54:46 MB-L3-01Mainboard Lantai 3 L3-HFT-01 Heat Flow Temperature 1 29.60 °C
11760 02/09/2026 14:54:46 MB-L3-01Mainboard Lantai 3 L3-LUX-05 Illuminance / LUX 5 38.40 lux
11761 02/09/2026 14:54:46 MB-L3-01Mainboard Lantai 3 L3-AI-02 Analog Input 2 3.12 V
11762 02/09/2026 14:54:46 MB-L3-01Mainboard Lantai 3 L3-LUX-04 Illuminance / LUX 4 94.20 lux
11763 02/09/2026 14:54:46 MB-L3-01Mainboard Lantai 3 L3-HFT-02 Heat Flow Temperature 2 29.10 °C
11764 02/09/2026 14:54:46 MB-L3-01Mainboard Lantai 3 L3-SHT-01-T SHT20 1 Temperature 32.10 °C
11765 02/09/2026 14:54:46 MB-L3-01Mainboard Lantai 3 L3-LUX-02 Illuminance / LUX 2 42.00 lux
11766 02/09/2026 14:54:46 MB-L3-01Mainboard Lantai 3 L3-SHT-01-RH SHT20 1 Humidity 48.50 %RH
11767 02/09/2026 14:54:46 MB-L3-01Mainboard Lantai 3 L3-AI-03 Analog Input 3 3.12 V
11768 02/09/2026 14:54:46 MB-L3-01Mainboard Lantai 3 L3-SHT-02-RH SHT20 2 Humidity 48.30 %RH
11769 02/09/2026 14:54:46 MB-L3-01Mainboard Lantai 3 L3-BGT-01 Black Globe Temperature 1 29.70 °C
11770 02/09/2026 14:54:46 MB-L3-01Mainboard Lantai 3 L3-LUX-01 Illuminance / LUX 1 32.30 lux
11771 02/09/2026 14:54:46 MB-L3-01Mainboard Lantai 3 L3-RAD-02 Radiation 2 1.00 W/m²
11772 02/09/2026 14:54:46 MB-L3-01Mainboard Lantai 3 L3-LUX-03 Illuminance / LUX 3 117.40 lux
11773 02/09/2026 14:54:46 MB-L3-01Mainboard Lantai 3 L3-AI-04 Analog Input 4 3.12 V
11774 02/09/2026 14:54:46 MB-L3-01Mainboard Lantai 3 L3-BGT-02 Black Globe Temperature 2 29.80 °C
11775 02/09/2026 14:54:46 MB-L3-01Mainboard Lantai 3 L3-RAD-01 Radiation 1 1.00 W/m²
11776 02/09/2026 14:54:46 MB-L3-01Mainboard Lantai 3 L3-SHT-03-RH SHT20 3 Humidity 49.10 %RH
11777 02/09/2026 14:54:46 MB-L3-01Mainboard Lantai 3 L3-ST-01 Surface Temperature 1 29.80 °C
11778 02/09/2026 14:54:46 MB-L3-01Mainboard Lantai 3 L3-AI-05 Analog Input 5 3.12 V
11779 02/09/2026 14:54:46 MB-L3-01Mainboard Lantai 3 L3-SHT-03-T SHT20 3 Temperature 31.80 °C
11780 02/09/2026 14:54:46 MB-L3-01Mainboard Lantai 3 L3-SHT-02-T SHT20 2 Temperature 32.10 °C
11781 02/09/2026 14:54:46 MB-L3-01Mainboard Lantai 3 L3-BGT-03 Black Globe Temperature 3 29.20 °C
11782 02/09/2026 14:54:45 MB-L5-01Mainboard Lantai 5 L5-AI-01 Analog Input 1 3.05 V
11783 02/09/2026 14:54:45 MB-L5-01Mainboard Lantai 5 L5-LUX-05 Illuminance / LUX 5 624.70 lux
11784 02/09/2026 14:54:45 MB-L5-01Mainboard Lantai 5 L5-BGT-03 Black Globe Temperature 3 29.60 °C
11785 02/09/2026 14:54:45 MB-L5-01Mainboard Lantai 5 L5-LUX-03 Illuminance / LUX 3 205.30 lux
11786 02/09/2026 14:54:45 MB-L5-01Mainboard Lantai 5 L5-BGT-02 Black Globe Temperature 2 29.60 °C
11787 02/09/2026 14:54:45 MB-L5-01Mainboard Lantai 5 L5-BGT-01 Black Globe Temperature 1 29.70 °C
11788 02/09/2026 14:54:45 MB-L5-01Mainboard Lantai 5 L5-HFT-02 Heat Flow Temperature 2 30.10 °C
11789 02/09/2026 14:54:45 MB-L5-01Mainboard Lantai 5 L5-SHT-01-RH SHT20 1 Humidity 48.30 %RH
11790 02/09/2026 14:54:45 MB-L5-01Mainboard Lantai 5 L5-HFT-01 Heat Flow Temperature 1 30.10 °C
11791 02/09/2026 14:54:45 MB-L5-01Mainboard Lantai 5 L5-LUX-01 Illuminance / LUX 1 279.40 lux
11792 02/09/2026 14:54:45 MB-L5-01Mainboard Lantai 5 L5-LUX-06 Illuminance / LUX 6 305.30 lux
11793 02/09/2026 14:54:45 MB-L5-01Mainboard Lantai 5 L5-ST-02 Surface Temperature 2 30.30 °C
11794 02/09/2026 14:54:45 MB-L5-01Mainboard Lantai 5 L5-LUX-02 Illuminance / LUX 2 186.10 lux
11795 02/09/2026 14:54:45 MB-L5-01Mainboard Lantai 5 L5-ST-01 Surface Temperature 1 30.00 °C
11796 02/09/2026 14:54:45 MB-L5-01Mainboard Lantai 5 L5-RAD-02 Radiation 2 2.00 W/m²
11797 02/09/2026 14:54:45 MB-L5-01Mainboard Lantai 5 L5-AI-06 Analog Input 6 3.05 V
11798 02/09/2026 14:54:45 MB-L5-01Mainboard Lantai 5 L5-SHT-02-RH SHT20 2 Humidity 48.30 %RH
11799 02/09/2026 14:54:45 MB-L5-01Mainboard Lantai 5 L5-LUX-04 Illuminance / LUX 4 333.80 lux
11800 02/09/2026 14:54:45 MB-L5-01Mainboard Lantai 5 L5-AI-05 Analog Input 5 3.05 V
Menampilkan maksimal 100 data per halaman